Mount Gretna Heights, Pennsylvania
Current Conditions -  °F | °C
As of 8:53 AM on Wednesday 22 Oct 2014 (Local Time) from KLNS Reporting Station
Light Rain Light Rain  
Wind Chill: 53°   Ceiling: 2300
Heat Index: 53°   Visibility: 5mi
Dew Point: 49°   Wind: 10mph
Humidity: 86%   Direction: 360°N
Pressure: 29.93"   Gusts: NA
Location:  40.2477°N, 76.4509°W
Report Text: KLNS 221253Z 36009KT 5SM -RA BR BKN023 OVC049 12/09 A2993 RMK AO2 RAB20 SLP136 P0002 T01170094
Loading
Personal Weather Stations






























Interactive Weather Map
Tropical Storm Tracking
New forecast layout! Learn more

10-Day Weather Forecast

Advertisements
Track Severe Weather on mobile